sensor_id;sensor_type;location;lat;lon;timestamp;P1;durP1;ratioP1;P2;durP2;ratioP2
3985;SDS011;2007;48.750;9.278;2024-03-06T00:01:44;3.40;;;3.10;;
3985;SDS011;2007;48.750;9.278;2024-03-06T00:04:12;2.33;;;2.03;;
3985;SDS011;2007;48.750;9.278;2024-03-06T00:06:44;3.00;;;2.70;;
3985;SDS011;2007;48.750;9.278;2024-03-06T00:09:12;3.07;;;2.40;;
3985;SDS011;2007;48.750;9.278;2024-03-06T00:11:40;3.03;;;2.50;;
3985;SDS011;2007;48.750;9.278;2024-03-06T00:14:08;3.23;;;2.87;;
3985;SDS011;2007;48.750;9.278;2024-03-06T00:16:39;2.70;;;2.43;;
3985;SDS011;2007;48.750;9.278;2024-03-06T00:19:07;2.27;;;1.83;;
3985;SDS011;2007;48.750;9.278;2024-03-06T00:21:35;2.80;;;2.47;;
3985;SDS011;2007;48.750;9.278;2024-03-06T00:24:04;3.47;;;2.33;;
3985;SDS011;2007;48.750;9.278;2024-03-06T00:26:33;5.77;;;3.23;;
3985;SDS011;2007;48.750;9.278;2024-03-06T00:29:01;4.63;;;2.87;;
3985;SDS011;2007;48.750;9.278;2024-03-06T00:31:29;3.03;;;2.37;;
3985;SDS011;2007;48.750;9.278;2024-03-06T00:33:57;4.07;;;2.47;;
3985;SDS011;2007;48.750;9.278;2024-03-06T00:36:25;2.30;;;2.10;;
3985;SDS011;2007;48.750;9.278;2024-03-06T00:38:53;3.50;;;3.03;;
3985;SDS011;2007;48.750;9.278;2024-03-06T00:41:22;3.10;;;2.20;;
3985;SDS011;2007;48.750;9.278;2024-03-06T00:43:50;6.43;;;3.10;;
3985;SDS011;2007;48.750;9.278;2024-03-06T00:46:18;3.43;;;3.13;;
3985;SDS011;2007;48.750;9.278;2024-03-06T00:48:46;3.47;;;2.80;;
3985;SDS011;2007;48.750;9.278;2024-03-06T00:51:14;3.60;;;2.73;;
3985;SDS011;2007;48.750;9.278;2024-03-06T00:53:42;2.90;;;2.43;;
3985;SDS011;2007;48.750;9.278;2024-03-06T00:56:10;3.07;;;2.20;;
3985;SDS011;2007;48.750;9.278;2024-03-06T00:58:40;3.20;;;2.80;;
3985;SDS011;2007;48.750;9.278;2024-03-06T01:01:08;2.20;;;1.90;;
3985;SDS011;2007;48.750;9.278;2024-03-06T01:03:37;2.60;;;2.40;;
3985;SDS011;2007;48.750;9.278;2024-03-06T01:06:05;2.50;;;2.30;;
3985;SDS011;2007;48.750;9.278;2024-03-06T01:08:33;2.60;;;2.30;;
3985;SDS011;2007;48.750;9.278;2024-03-06T01:11:02;2.90;;;2.17;;
3985;SDS011;2007;48.750;9.278;2024-03-06T01:13:30;3.70;;;2.77;;
3985;SDS011;2007;48.750;9.278;2024-03-06T01:16:00;2.80;;;2.40;;
3985;SDS011;2007;48.750;9.278;2024-03-06T01:18:28;3.50;;;2.60;;
3985;SDS011;2007;48.750;9.278;2024-03-06T01:20:56;2.97;;;2.77;;
3985;SDS011;2007;48.750;9.278;2024-03-06T01:23:23;2.90;;;2.40;;
3985;SDS011;2007;48.750;9.278;2024-03-06T01:25:51;2.93;;;2.23;;
3985;SDS011;2007;48.750;9.278;2024-03-06T01:28:19;3.27;;;2.80;;
3985;SDS011;2007;48.750;9.278;2024-03-06T01:30:47;2.97;;;2.60;;
3985;SDS011;2007;48.750;9.278;2024-03-06T01:33:17;4.00;;;3.23;;
3985;SDS011;2007;48.750;9.278;2024-03-06T01:35:45;3.10;;;2.10;;
3985;SDS011;2007;48.750;9.278;2024-03-06T01:38:13;3.00;;;2.60;;
3985;SDS011;2007;48.750;9.278;2024-03-06T01:40:42;3.50;;;2.83;;
3985;SDS011;2007;48.750;9.278;2024-03-06T01:43:21;3.10;;;2.80;;
3985;SDS011;2007;48.750;9.278;2024-03-06T01:45:50;2.73;;;2.50;;
3985;SDS011;2007;48.750;9.278;2024-03-06T01:48:21;3.10;;;2.40;;
3985;SDS011;2007;48.750;9.278;2024-03-06T01:50:52;2.50;;;2.30;;
3985;SDS011;2007;48.750;9.278;2024-03-06T01:53:22;2.87;;;2.43;;
3985;SDS011;2007;48.750;9.278;2024-03-06T01:55:51;3.90;;;2.77;;
3985;SDS011;2007;48.750;9.278;2024-03-06T01:58:20;2.80;;;2.30;;
3985;SDS011;2007;48.750;9.278;2024-03-06T02:00:48;2.93;;;2.43;;
3985;SDS011;2007;48.750;9.278;2024-03-06T02:03:17;2.87;;;2.40;;
3985;SDS011;2007;48.750;9.278;2024-03-06T02:05:48;3.10;;;2.80;;
3985;SDS011;2007;48.750;9.278;2024-03-06T02:08:16;4.67;;;3.27;;
3985;SDS011;2007;48.750;9.278;2024-03-06T02:10:44;3.47;;;2.90;;
3985;SDS011;2007;48.750;9.278;2024-03-06T02:13:13;3.13;;;2.83;;
3985;SDS011;2007;48.750;9.278;2024-03-06T02:15:41;2.90;;;2.60;;
3985;SDS011;2007;48.750;9.278;2024-03-06T02:18:11;2.77;;;2.47;;
3985;SDS011;2007;48.750;9.278;2024-03-06T02:20:41;3.33;;;2.77;;
3985;SDS011;2007;48.750;9.278;2024-03-06T02:23:09;3.47;;;2.80;;
3985;SDS011;2007;48.750;9.278;2024-03-06T02:25:37;3.27;;;2.30;;
3985;SDS011;2007;48.750;9.278;2024-03-06T02:28:05;2.53;;;2.20;;
3985;SDS011;2007;48.750;9.278;2024-03-06T02:30:33;4.17;;;2.93;;
3985;SDS011;2007;48.750;9.278;2024-03-06T02:33:04;2.67;;;2.47;;
3985;SDS011;2007;48.750;9.278;2024-03-06T02:35:33;2.57;;;2.37;;
3985;SDS011;2007;48.750;9.278;2024-03-06T02:38:03;4.70;;;2.93;;
3985;SDS011;2007;48.750;9.278;2024-03-06T02:40:32;3.13;;;2.83;;
3985;SDS011;2007;48.750;9.278;2024-03-06T02:43:00;3.13;;;2.20;;
3985;SDS011;2007;48.750;9.278;2024-03-06T02:45:28;3.87;;;2.90;;
3985;SDS011;2007;48.750;9.278;2024-03-06T02:47:56;3.63;;;2.80;;
3985;SDS011;2007;48.750;9.278;2024-03-06T02:50:24;3.20;;;2.90;;
3985;SDS011;2007;48.750;9.278;2024-03-06T02:52:52;3.87;;;2.90;;
3985;SDS011;2007;48.750;9.278;2024-03-06T02:55:22;3.93;;;2.83;;
3985;SDS011;2007;48.750;9.278;2024-03-06T02:57:50;2.90;;;2.60;;
3985;SDS011;2007;48.750;9.278;2024-03-06T03:00:18;3.10;;;2.80;;
3985;SDS011;2007;48.750;9.278;2024-03-06T03:02:46;4.73;;;3.00;;
3985;SDS011;2007;48.750;9.278;2024-03-06T03:05:14;3.27;;;2.50;;
3985;SDS011;2007;48.750;9.278;2024-03-06T03:07:42;3.43;;;2.77;;
3985;SDS011;2007;48.750;9.278;2024-03-06T03:10:10;2.60;;;2.23;;
3985;SDS011;2007;48.750;9.278;2024-03-06T03:12:40;3.00;;;2.50;;
3985;SDS011;2007;48.750;9.278;2024-03-06T03:15:08;3.20;;;2.67;;
3985;SDS011;2007;48.750;9.278;2024-03-06T03:17:36;4.33;;;3.70;;
3985;SDS011;2007;48.750;9.278;2024-03-06T03:20:05;2.67;;;2.47;;
3985;SDS011;2007;48.750;9.278;2024-03-06T03:22:37;2.73;;;2.53;;
3985;SDS011;2007;48.750;9.278;2024-03-06T03:25:07;3.13;;;2.83;;
3985;SDS011;2007;48.750;9.278;2024-03-06T03:27:36;3.50;;;3.10;;
3985;SDS011;2007;48.750;9.278;2024-03-06T03:30:07;2.53;;;2.33;;
3985;SDS011;2007;48.750;9.278;2024-03-06T03:32:36;3.40;;;2.77;;
3985;SDS011;2007;48.750;9.278;2024-03-06T03:35:05;4.63;;;3.30;;
3985;SDS011;2007;48.750;9.278;2024-03-06T03:37:33;4.43;;;3.10;;
3985;SDS011;2007;48.750;9.278;2024-03-06T03:40:01;2.60;;;2.23;;
3985;SDS011;2007;48.750;9.278;2024-03-06T03:42:30;2.97;;;2.60;;
3985;SDS011;2007;48.750;9.278;2024-03-06T03:44:58;2.87;;;2.60;;
3985;SDS011;2007;48.750;9.278;2024-03-06T03:47:27;3.33;;;2.23;;
3985;SDS011;2007;48.750;9.278;2024-03-06T03:49:55;3.30;;;2.43;;
3985;SDS011;2007;48.750;9.278;2024-03-06T03:52:35;3.00;;;2.70;;
3985;SDS011;2007;48.750;9.278;2024-03-06T03:55:07;3.37;;;2.37;;
3985;SDS011;2007;48.750;9.278;2024-03-06T03:57:36;2.73;;;2.53;;
3985;SDS011;2007;48.750;9.278;2024-03-06T04:00:04;3.30;;;2.50;;
3985;SDS011;2007;48.750;9.278;2024-03-06T04:02:39;3.17;;;2.70;;
3985;SDS011;2007;48.750;9.278;2024-03-06T04:05:07;3.10;;;2.80;;
3985;SDS011;2007;48.750;9.278;2024-03-06T04:07:35;3.50;;;3.20;;
3985;SDS011;2007;48.750;9.278;2024-03-06T04:10:04;3.27;;;2.43;;
3985;SDS011;2007;48.750;9.278;2024-03-06T04:12:33;4.10;;;2.50;;
3985;SDS011;2007;48.750;9.278;2024-03-06T04:15:01;2.93;;;2.63;;
3985;SDS011;2007;48.750;9.278;2024-03-06T04:17:30;3.07;;;2.60;;
3985;SDS011;2007;48.750;9.278;2024-03-06T04:19:59;2.43;;;2.10;;
3985;SDS011;2007;48.750;9.278;2024-03-06T04:22:27;2.93;;;2.73;;
3985;SDS011;2007;48.750;9.278;2024-03-06T04:24:55;4.10;;;3.00;;
3985;SDS011;2007;48.750;9.278;2024-03-06T04:27:25;3.93;;;3.10;;
3985;SDS011;2007;48.750;9.278;2024-03-06T04:29:53;3.17;;;2.40;;
3985;SDS011;2007;48.750;9.278;2024-03-06T04:32:21;4.13;;;3.00;;
3985;SDS011;2007;48.750;9.278;2024-03-06T04:34:49;3.10;;;2.30;;
3985;SDS011;2007;48.750;9.278;2024-03-06T04:37:24;2.70;;;2.50;;
3985;SDS011;2007;48.750;9.278;2024-03-06T04:39:53;3.07;;;2.70;;
3985;SDS011;2007;48.750;9.278;2024-03-06T04:42:20;3.30;;;2.90;;
3985;SDS011;2007;48.750;9.278;2024-03-06T04:44:48;3.40;;;2.97;;
3985;SDS011;2007;48.750;9.278;2024-03-06T04:47:16;2.90;;;2.50;;
3985;SDS011;2007;48.750;9.278;2024-03-06T04:49:45;4.80;;;2.57;;
3985;SDS011;2007;48.750;9.278;2024-03-06T04:52:13;3.07;;;2.77;;
3985;SDS011;2007;48.750;9.278;2024-03-06T04:54:42;2.87;;;2.57;;
3985;SDS011;2007;48.750;9.278;2024-03-06T04:57:10;3.53;;;3.00;;
3985;SDS011;2007;48.750;9.278;2024-03-06T04:59:38;2.40;;;2.20;;
3985;SDS011;2007;48.750;9.278;2024-03-06T05:02:06;4.43;;;2.90;;
3985;SDS011;2007;48.750;9.278;2024-03-06T05:04:35;3.23;;;2.53;;
3985;SDS011;2007;48.750;9.278;2024-03-06T05:07:21;3.00;;;2.70;;
3985;SDS011;2007;48.750;9.278;2024-03-06T05:10:08;2.77;;;2.57;;
3985;SDS011;2007;48.750;9.278;2024-03-06T05:12:54;3.70;;;2.47;;
3985;SDS011;2007;48.750;9.278;2024-03-06T05:15:39;2.97;;;2.30;;
3985;SDS011;2007;48.750;9.278;2024-03-06T05:18:25;2.57;;;2.37;;
3985;SDS011;2007;48.750;9.278;2024-03-06T05:21:10;2.23;;;2.03;;
3985;SDS011;2007;48.750;9.278;2024-03-06T05:23:56;2.87;;;2.37;;
3985;SDS011;2007;48.750;9.278;2024-03-06T05:26:43;2.53;;;1.97;;
3985;SDS011;2007;48.750;9.278;2024-03-06T05:29:29;3.33;;;2.70;;
3985;SDS011;2007;48.750;9.278;2024-03-06T05:32:16;2.53;;;2.23;;
3985;SDS011;2007;48.750;9.278;2024-03-06T05:35:01;2.93;;;2.27;;
3985;SDS011;2007;48.750;9.278;2024-03-06T05:37:47;2.73;;;1.90;;
3985;SDS011;2007;48.750;9.278;2024-03-06T05:40:33;3.10;;;2.00;;
3985;SDS011;2007;48.750;9.278;2024-03-06T05:43:22;2.90;;;2.60;;
3985;SDS011;2007;48.750;9.278;2024-03-06T05:46:07;4.20;;;3.00;;
3985;SDS011;2007;48.750;9.278;2024-03-06T05:48:53;3.07;;;2.37;;
3985;SDS011;2007;48.750;9.278;2024-03-06T05:51:38;3.07;;;2.20;;
3985;SDS011;2007;48.750;9.278;2024-03-06T05:54:24;2.87;;;1.97;;
3985;SDS011;2007;48.750;9.278;2024-03-06T05:57:09;3.00;;;2.70;;
3985;SDS011;2007;48.750;9.278;2024-03-06T05:59:56;2.63;;;1.97;;
3985;SDS011;2007;48.750;9.278;2024-03-06T06:02:24;2.80;;;2.00;;
3985;SDS011;2007;48.750;9.278;2024-03-06T06:04:53;2.80;;;2.40;;
3985;SDS011;2007;48.750;9.278;2024-03-06T06:07:41;2.40;;;1.90;;
3985;SDS011;2007;48.750;9.278;2024-03-06T06:10:09;2.23;;;1.90;;
3985;SDS011;2007;48.750;9.278;2024-03-06T06:12:37;2.50;;;1.70;;
3985;SDS011;2007;48.750;9.278;2024-03-06T06:15:07;2.70;;;2.33;;
3985;SDS011;2007;48.750;9.278;2024-03-06T06:17:36;3.00;;;2.23;;
3985;SDS011;2007;48.750;9.278;2024-03-06T06:20:06;2.20;;;2.00;;
3985;SDS011;2007;48.750;9.278;2024-03-06T06:22:36;2.63;;;2.17;;
3985;SDS011;2007;48.750;9.278;2024-03-06T06:25:04;2.53;;;1.70;;
3985;SDS011;2007;48.750;9.278;2024-03-06T06:27:33;2.53;;;2.33;;
3985;SDS011;2007;48.750;9.278;2024-03-06T06:30:03;2.40;;;1.93;;
3985;SDS011;2007;48.750;9.278;2024-03-06T06:32:34;2.43;;;1.90;;
3985;SDS011;2007;48.750;9.278;2024-03-06T06:35:02;2.23;;;1.90;;
3985;SDS011;2007;48.750;9.278;2024-03-06T06:37:31;2.27;;;2.07;;
3985;SDS011;2007;48.750;9.278;2024-03-06T06:40:00;2.13;;;1.90;;
3985;SDS011;2007;48.750;9.278;2024-03-06T06:42:32;2.53;;;2.03;;
3985;SDS011;2007;48.750;9.278;2024-03-06T06:45:01;2.67;;;2.20;;
3985;SDS011;2007;48.750;9.278;2024-03-06T06:47:30;2.27;;;1.80;;
3985;SDS011;2007;48.750;9.278;2024-03-06T06:49:59;2.70;;;2.07;;
3985;SDS011;2007;48.750;9.278;2024-03-06T06:52:32;2.37;;;1.80;;
3985;SDS011;2007;48.750;9.278;2024-03-06T06:55:01;3.57;;;2.10;;
3985;SDS011;2007;48.750;9.278;2024-03-06T06:57:30;2.37;;;2.17;;
3985;SDS011;2007;48.750;9.278;2024-03-06T06:59:59;2.20;;;1.80;;
3985;SDS011;2007;48.750;9.278;2024-03-06T07:02:29;2.20;;;1.67;;
3985;SDS011;2007;48.750;9.278;2024-03-06T07:04:57;2.17;;;1.97;;
3985;SDS011;2007;48.750;9.278;2024-03-06T07:07:26;2.70;;;2.07;;
3985;SDS011;2007;48.750;9.278;2024-03-06T07:09:54;2.00;;;1.60;;
3985;SDS011;2007;48.750;9.278;2024-03-06T07:12:22;2.70;;;1.90;;
3985;SDS011;2007;48.750;9.278;2024-03-06T07:14:50;2.40;;;2.20;;
3985;SDS011;2007;48.750;9.278;2024-03-06T07:17:18;2.00;;;1.50;;
3985;SDS011;2007;48.750;9.278;2024-03-06T07:19:46;2.57;;;2.00;;
3985;SDS011;2007;48.750;9.278;2024-03-06T07:22:14;2.33;;;2.03;;
3985;SDS011;2007;48.750;9.278;2024-03-06T07:24:43;2.20;;;1.77;;
3985;SDS011;2007;48.750;9.278;2024-03-06T07:27:11;3.17;;;1.83;;
3985;SDS011;2007;48.750;9.278;2024-03-06T07:29:39;2.27;;;1.80;;
3985;SDS011;2007;48.750;9.278;2024-03-06T07:32:08;2.10;;;1.50;;
3985;SDS011;2007;48.750;9.278;2024-03-06T07:34:36;2.80;;;1.90;;
3985;SDS011;2007;48.750;9.278;2024-03-06T07:37:04;2.27;;;1.87;;
3985;SDS011;2007;48.750;9.278;2024-03-06T07:39:32;2.50;;;2.03;;
3985;SDS011;2007;48.750;9.278;2024-03-06T07:42:02;2.30;;;1.90;;
3985;SDS011;2007;48.750;9.278;2024-03-06T07:44:30;2.00;;;1.70;;
3985;SDS011;2007;48.750;9.278;2024-03-06T07:46:58;3.00;;;1.87;;
3985;SDS011;2007;48.750;9.278;2024-03-06T07:49:26;2.87;;;1.63;;
3985;SDS011;2007;48.750;9.278;2024-03-06T07:51:54;2.20;;;1.70;;
3985;SDS011;2007;48.750;9.278;2024-03-06T07:54:23;3.23;;;2.30;;
3985;SDS011;2007;48.750;9.278;2024-03-06T07:56:51;2.27;;;1.80;;
3985;SDS011;2007;48.750;9.278;2024-03-06T07:59:21;2.10;;;1.77;;
3985;SDS011;2007;48.750;9.278;2024-03-06T08:01:49;2.37;;;1.90;;
3985;SDS011;2007;48.750;9.278;2024-03-06T08:04:17;2.03;;;1.60;;
3985;SDS011;2007;48.750;9.278;2024-03-06T08:06:45;2.73;;;1.70;;
3985;SDS011;2007;48.750;9.278;2024-03-06T08:09:13;2.13;;;1.63;;
3985;SDS011;2007;48.750;9.278;2024-03-06T08:11:42;2.30;;;2.00;;
3985;SDS011;2007;48.750;9.278;2024-03-06T08:14:10;2.33;;;1.67;;
3985;SDS011;2007;48.750;9.278;2024-03-06T08:16:42;2.23;;;1.70;;
3985;SDS011;2007;48.750;9.278;2024-03-06T08:19:10;2.10;;;1.60;;
3985;SDS011;2007;48.750;9.278;2024-03-06T08:21:39;2.30;;;1.53;;
3985;SDS011;2007;48.750;9.278;2024-03-06T08:24:08;2.33;;;2.10;;
3985;SDS011;2007;48.750;9.278;2024-03-06T08:26:37;3.13;;;2.30;;
3985;SDS011;2007;48.750;9.278;2024-03-06T08:29:05;2.03;;;1.37;;
3985;SDS011;2007;48.750;9.278;2024-03-06T08:31:33;3.23;;;1.90;;
3985;SDS011;2007;48.750;9.278;2024-03-06T08:34:02;2.10;;;1.70;;
3985;SDS011;2007;48.750;9.278;2024-03-06T08:36:30;2.50;;;2.27;;
3985;SDS011;2007;48.750;9.278;2024-03-06T08:38:58;2.13;;;1.53;;
3985;SDS011;2007;48.750;9.278;2024-03-06T08:41:26;2.33;;;1.73;;
3985;SDS011;2007;48.750;9.278;2024-03-06T08:43:55;3.63;;;1.90;;
3985;SDS011;2007;48.750;9.278;2024-03-06T08:46:23;2.37;;;1.70;;
3985;SDS011;2007;48.750;9.278;2024-03-06T08:48:51;2.70;;;1.80;;
3985;SDS011;2007;48.750;9.278;2024-03-06T08:51:20;1.90;;;1.30;;
3985;SDS011;2007;48.750;9.278;2024-03-06T08:53:48;2.37;;;1.77;;
3985;SDS011;2007;48.750;9.278;2024-03-06T08:56:16;2.87;;;1.53;;
3985;SDS011;2007;48.750;9.278;2024-03-06T08:58:45;2.00;;;1.80;;
3985;SDS011;2007;48.750;9.278;2024-03-06T09:01:12;2.23;;;1.60;;
3985;SDS011;2007;48.750;9.278;2024-03-06T09:03:41;2.10;;;1.40;;
3985;SDS011;2007;48.750;9.278;2024-03-06T09:06:09;2.60;;;1.60;;
3985;SDS011;2007;48.750;9.278;2024-03-06T09:08:38;2.57;;;1.87;;
3985;SDS011;2007;48.750;9.278;2024-03-06T09:11:06;2.00;;;1.53;;
3985;SDS011;2007;48.750;9.278;2024-03-06T09:13:34;2.00;;;1.57;;
3985;SDS011;2007;48.750;9.278;2024-03-06T09:16:03;2.27;;;1.83;;
3985;SDS011;2007;48.750;9.278;2024-03-06T09:18:30;1.90;;;1.63;;
3985;SDS011;2007;48.750;9.278;2024-03-06T09:20:58;1.87;;;1.37;;
3985;SDS011;2007;48.750;9.278;2024-03-06T09:23:26;2.17;;;1.70;;
3985;SDS011;2007;48.750;9.278;2024-03-06T09:25:57;2.30;;;1.70;;
3985;SDS011;2007;48.750;9.278;2024-03-06T09:28:25;2.23;;;1.50;;
3985;SDS011;2007;48.750;9.278;2024-03-06T09:30:53;1.83;;;1.40;;
3985;SDS011;2007;48.750;9.278;2024-03-06T09:33:21;2.37;;;1.60;;
3985;SDS011;2007;48.750;9.278;2024-03-06T09:35:50;2.37;;;1.77;;
3985;SDS011;2007;48.750;9.278;2024-03-06T09:38:18;1.90;;;1.60;;
3985;SDS011;2007;48.750;9.278;2024-03-06T09:40:46;2.10;;;1.80;;
3985;SDS011;2007;48.750;9.278;2024-03-06T09:43:16;2.13;;;1.73;;
3985;SDS011;2007;48.750;9.278;2024-03-06T09:45:44;2.20;;;1.53;;
3985;SDS011;2007;48.750;9.278;2024-03-06T09:48:18;2.53;;;1.73;;
3985;SDS011;2007;48.750;9.278;2024-03-06T09:50:48;2.23;;;1.80;;
3985;SDS011;2007;48.750;9.278;2024-03-06T09:53:18;2.17;;;1.77;;
3985;SDS011;2007;48.750;9.278;2024-03-06T09:55:49;1.90;;;1.30;;
3985;SDS011;2007;48.750;9.278;2024-03-06T09:58:19;1.90;;;1.37;;
3985;SDS011;2007;48.750;9.278;2024-03-06T10:00:47;2.43;;;1.70;;
3985;SDS011;2007;48.750;9.278;2024-03-06T10:03:17;2.23;;;1.90;;
3985;SDS011;2007;48.750;9.278;2024-03-06T10:05:46;3.10;;;2.20;;
3985;SDS011;2007;48.750;9.278;2024-03-06T10:08:14;5.20;;;1.80;;
3985;SDS011;2007;48.750;9.278;2024-03-06T10:10:43;1.80;;;1.20;;
3985;SDS011;2007;48.750;9.278;2024-03-06T10:13:12;2.30;;;1.80;;
3985;SDS011;2007;48.750;9.278;2024-03-06T10:15:41;2.30;;;1.70;;
3985;SDS011;2007;48.750;9.278;2024-03-06T10:18:09;2.60;;;1.73;;
3985;SDS011;2007;48.750;9.278;2024-03-06T10:20:40;2.43;;;1.50;;
3985;SDS011;2007;48.750;9.278;2024-03-06T10:23:11;2.83;;;1.77;;
3985;SDS011;2007;48.750;9.278;2024-03-06T10:25:39;2.40;;;1.70;;
3985;SDS011;2007;48.750;9.278;2024-03-06T10:28:11;1.93;;;1.33;;
3985;SDS011;2007;48.750;9.278;2024-03-06T10:30:40;2.10;;;1.57;;
3985;SDS011;2007;48.750;9.278;2024-03-06T10:33:11;1.57;;;1.13;;
3985;SDS011;2007;48.750;9.278;2024-03-06T10:35:40;2.00;;;1.40;;
3985;SDS011;2007;48.750;9.278;2024-03-06T10:38:10;2.83;;;1.40;;
3985;SDS011;2007;48.750;9.278;2024-03-06T10:40:39;2.20;;;1.67;;
3985;SDS011;2007;48.750;9.278;2024-03-06T10:43:08;2.60;;;1.80;;
3985;SDS011;2007;48.750;9.278;2024-03-06T10:45:43;2.90;;;1.90;;
3985;SDS011;2007;48.750;9.278;2024-03-06T10:48:15;2.10;;;1.37;;
3985;SDS011;2007;48.750;9.278;2024-03-06T10:50:44;2.10;;;1.47;;
3985;SDS011;2007;48.750;9.278;2024-03-06T10:53:14;1.90;;;1.30;;
3985;SDS011;2007;48.750;9.278;2024-03-06T10:55:49;2.30;;;1.60;;
3985;SDS011;2007;48.750;9.278;2024-03-06T10:58:17;2.00;;;1.50;;
3985;SDS011;2007;48.750;9.278;2024-03-06T11:00:48;2.87;;;1.97;;
3985;SDS011;2007;48.750;9.278;2024-03-06T11:03:18;3.30;;;2.23;;
3985;SDS011;2007;48.750;9.278;2024-03-06T11:05:47;2.53;;;1.60;;
3985;SDS011;2007;48.750;9.278;2024-03-06T11:08:18;2.00;;;1.50;;
3985;SDS011;2007;48.750;9.278;2024-03-06T11:10:47;2.00;;;1.40;;
3985;SDS011;2007;48.750;9.278;2024-03-06T11:13:21;2.20;;;1.73;;
3985;SDS011;2007;48.750;9.278;2024-03-06T11:15:52;2.37;;;1.93;;
3985;SDS011;2007;48.750;9.278;2024-03-06T11:21:32;1.97;;;1.67;;
3985;SDS011;2007;48.750;9.278;2024-03-06T11:24:12;1.83;;;1.30;;
3985;SDS011;2007;48.750;9.278;2024-03-06T11:26:48;1.80;;;1.40;;
3985;SDS011;2007;48.750;9.278;2024-03-06T11:29:18;1.60;;;1.33;;
3985;SDS011;2007;48.750;9.278;2024-03-06T11:32:01;2.50;;;2.00;;
3985;SDS011;2007;48.750;9.278;2024-03-06T11:34:35;3.13;;;2.00;;
3985;SDS011;2007;48.750;9.278;2024-03-06T11:37:04;2.33;;;1.50;;
3985;SDS011;2007;48.750;9.278;2024-03-06T11:39:36;2.40;;;1.90;;
3985;SDS011;2007;48.750;9.278;2024-03-06T11:42:06;2.27;;;1.77;;
3985;SDS011;2007;48.750;9.278;2024-03-06T11:44:35;2.40;;;1.50;;
3985;SDS011;2007;48.750;9.278;2024-03-06T11:47:05;3.27;;;2.33;;
3985;SDS011;2007;48.750;9.278;2024-03-06T11:49:36;2.37;;;1.63;;
3985;SDS011;2007;48.750;9.278;2024-03-06T11:52:05;2.33;;;1.70;;
3985;SDS011;2007;48.750;9.278;2024-03-06T11:54:36;1.90;;;1.50;;
3985;SDS011;2007;48.750;9.278;2024-03-06T11:57:05;2.30;;;2.00;;
3985;SDS011;2007;48.750;9.278;2024-03-06T11:59:34;4.13;;;1.80;;
3985;SDS011;2007;48.750;9.278;2024-03-06T12:02:06;3.13;;;2.10;;
3985;SDS011;2007;48.750;9.278;2024-03-06T12:04:36;2.07;;;1.87;;
3985;SDS011;2007;48.750;9.278;2024-03-06T12:07:06;2.37;;;2.13;;
3985;SDS011;2007;48.750;9.278;2024-03-06T12:09:38;2.27;;;1.50;;
3985;SDS011;2007;48.750;9.278;2024-03-06T12:12:09;2.57;;;1.80;;
3985;SDS011;2007;48.750;9.278;2024-03-06T12:14:38;2.30;;;1.90;;
3985;SDS011;2007;48.750;9.278;2024-03-06T12:17:12;2.37;;;2.00;;
3985;SDS011;2007;48.750;9.278;2024-03-06T12:19:42;2.13;;;1.80;;
3985;SDS011;2007;48.750;9.278;2024-03-06T12:22:11;2.33;;;1.80;;
3985;SDS011;2007;48.750;9.278;2024-03-06T12:24:41;2.93;;;1.90;;
3985;SDS011;2007;48.750;9.278;2024-03-06T12:27:09;2.20;;;1.90;;
3985;SDS011;2007;48.750;9.278;2024-03-06T12:29:38;2.17;;;1.57;;
3985;SDS011;2007;48.750;9.278;2024-03-06T12:32:16;2.67;;;1.90;;
3985;SDS011;2007;48.750;9.278;2024-03-06T12:34:55;3.03;;;2.47;;
3985;SDS011;2007;48.750;9.278;2024-03-06T12:37:29;2.20;;;2.00;;
3985;SDS011;2007;48.750;9.278;2024-03-06T12:39:58;3.20;;;2.10;;
3985;SDS011;2007;48.750;9.278;2024-03-06T12:42:27;2.00;;;1.80;;
3985;SDS011;2007;48.750;9.278;2024-03-06T12:44:55;2.57;;;2.30;;
3985;SDS011;2007;48.750;9.278;2024-03-06T12:47:24;2.00;;;1.73;;
3985;SDS011;2007;48.750;9.278;2024-03-06T12:49:53;3.00;;;2.13;;
3985;SDS011;2007;48.750;9.278;2024-03-06T12:52:21;2.20;;;1.83;;
3985;SDS011;2007;48.750;9.278;2024-03-06T12:54:48;2.13;;;1.70;;
3985;SDS011;2007;48.750;9.278;2024-03-06T12:57:16;2.60;;;2.00;;
3985;SDS011;2007;48.750;9.278;2024-03-06T12:59:45;3.17;;;2.13;;
3985;SDS011;2007;48.750;9.278;2024-03-06T13:02:13;2.77;;;2.27;;
3985;SDS011;2007;48.750;9.278;2024-03-06T13:04:42;2.63;;;2.30;;
3985;SDS011;2007;48.750;9.278;2024-03-06T13:07:10;2.10;;;1.90;;
3985;SDS011;2007;48.750;9.278;2024-03-06T13:09:38;2.50;;;2.30;;
3985;SDS011;2007;48.750;9.278;2024-03-06T13:12:07;2.60;;;2.30;;
3985;SDS011;2007;48.750;9.278;2024-03-06T13:14:35;2.90;;;2.47;;
3985;SDS011;2007;48.750;9.278;2024-03-06T13:17:03;2.97;;;2.07;;
3985;SDS011;2007;48.750;9.278;2024-03-06T13:19:32;2.87;;;2.27;;
3985;SDS011;2007;48.750;9.278;2024-03-06T13:22:01;2.60;;;2.03;;
3985;SDS011;2007;48.750;9.278;2024-03-06T13:24:33;3.10;;;2.43;;
3985;SDS011;2007;48.750;9.278;2024-03-06T13:27:03;2.77;;;2.20;;
3985;SDS011;2007;48.750;9.278;2024-03-06T13:29:31;2.40;;;1.87;;
3985;SDS011;2007;48.750;9.278;2024-03-06T13:31:59;2.33;;;2.10;;
3985;SDS011;2007;48.750;9.278;2024-03-06T13:34:27;2.30;;;2.03;;
3985;SDS011;2007;48.750;9.278;2024-03-06T13:36:56;3.67;;;2.50;;
3985;SDS011;2007;48.750;9.278;2024-03-06T13:39:26;2.47;;;1.80;;
3985;SDS011;2007;48.750;9.278;2024-03-06T13:41:58;2.90;;;2.30;;
3985;SDS011;2007;48.750;9.278;2024-03-06T13:44:26;2.60;;;2.40;;
3985;SDS011;2007;48.750;9.278;2024-03-06T13:46:54;2.27;;;1.90;;
3985;SDS011;2007;48.750;9.278;2024-03-06T13:49:34;2.57;;;2.30;;
3985;SDS011;2007;48.750;9.278;2024-03-06T13:52:03;6.43;;;2.43;;
3985;SDS011;2007;48.750;9.278;2024-03-06T13:54:34;2.33;;;2.03;;
3985;SDS011;2007;48.750;9.278;2024-03-06T13:57:02;2.67;;;1.93;;
3985;SDS011;2007;48.750;9.278;2024-03-06T13:59:31;2.20;;;2.00;;
3985;SDS011;2007;48.750;9.278;2024-03-06T14:01:59;3.37;;;2.30;;
3985;SDS011;2007;48.750;9.278;2024-03-06T14:04:27;2.27;;;2.07;;
3985;SDS011;2007;48.750;9.278;2024-03-06T14:06:55;2.70;;;2.07;;
3985;SDS011;2007;48.750;9.278;2024-03-06T14:09:25;2.57;;;2.37;;
3985;SDS011;2007;48.750;9.278;2024-03-06T14:11:54;2.97;;;2.70;;
3985;SDS011;2007;48.750;9.278;2024-03-06T14:14:23;2.80;;;2.43;;
3985;SDS011;2007;48.750;9.278;2024-03-06T14:16:51;2.73;;;2.43;;
3985;SDS011;2007;48.750;9.278;2024-03-06T14:19:19;2.53;;;2.20;;
3985;SDS011;2007;48.750;9.278;2024-03-06T14:21:47;2.50;;;2.07;;
3985;SDS011;2007;48.750;9.278;2024-03-06T14:24:15;2.67;;;2.27;;
3985;SDS011;2007;48.750;9.278;2024-03-06T14:26:44;2.23;;;1.90;;
3985;SDS011;2007;48.750;9.278;2024-03-06T14:29:15;3.03;;;2.07;;
3985;SDS011;2007;48.750;9.278;2024-03-06T14:31:43;2.60;;;1.90;;
3985;SDS011;2007;48.750;9.278;2024-03-06T14:34:11;2.83;;;2.60;;
3985;SDS011;2007;48.750;9.278;2024-03-06T14:36:40;2.77;;;2.30;;
3985;SDS011;2007;48.750;9.278;2024-03-06T14:39:08;2.83;;;2.40;;
3985;SDS011;2007;48.750;9.278;2024-03-06T14:41:37;2.40;;;2.10;;
3985;SDS011;2007;48.750;9.278;2024-03-06T14:44:05;2.83;;;2.07;;
3985;SDS011;2007;48.750;9.278;2024-03-06T14:46:34;2.30;;;2.10;;
3985;SDS011;2007;48.750;9.278;2024-03-06T14:49:02;2.87;;;2.27;;
3985;SDS011;2007;48.750;9.278;2024-03-06T14:51:31;2.47;;;2.17;;
3985;SDS011;2007;48.750;9.278;2024-03-06T14:53:59;2.20;;;1.97;;
3985;SDS011;2007;48.750;9.278;2024-03-06T14:56:27;3.20;;;2.90;;
3985;SDS011;2007;48.750;9.278;2024-03-06T14:58:57;2.67;;;2.40;;
3985;SDS011;2007;48.750;9.278;2024-03-06T15:01:25;2.73;;;2.30;;
3985;SDS011;2007;48.750;9.278;2024-03-06T15:03:55;3.47;;;2.53;;
3985;SDS011;2007;48.750;9.278;2024-03-06T15:06:23;2.40;;;2.17;;
3985;SDS011;2007;48.750;9.278;2024-03-06T15:08:51;2.60;;;2.40;;
3985;SDS011;2007;48.750;9.278;2024-03-06T15:11:19;2.10;;;1.90;;
3985;SDS011;2007;48.750;9.278;2024-03-06T15:13:49;2.80;;;2.10;;
3985;SDS011;2007;48.750;9.278;2024-03-06T15:16:17;2.47;;;2.27;;
3985;SDS011;2007;48.750;9.278;2024-03-06T15:18:45;2.23;;;2.03;;
3985;SDS011;2007;48.750;9.278;2024-03-06T15:21:16;2.60;;;2.10;;
3985;SDS011;2007;48.750;9.278;2024-03-06T15:23:44;2.27;;;2.00;;
3985;SDS011;2007;48.750;9.278;2024-03-06T15:26:12;2.60;;;2.40;;
3985;SDS011;2007;48.750;9.278;2024-03-06T15:28:40;2.00;;;1.80;;
3985;SDS011;2007;48.750;9.278;2024-03-06T15:31:08;2.30;;;2.00;;
3985;SDS011;2007;48.750;9.278;2024-03-06T15:33:36;2.47;;;2.27;;
3985;SDS011;2007;48.750;9.278;2024-03-06T15:36:05;2.27;;;2.07;;